sensor_id;sensor_type;location;lat;lon;timestamp;pressure;altitude;pressure_sealevel;temperature;humidity
18500;BME280;9379;52.134;11.576;2022-10-26T00:00:21;101112.66;;;14.14;93.29
18500;BME280;9379;52.134;11.576;2022-10-26T00:02:49;101098.69;;;14.20;92.93
18500;BME280;9379;52.134;11.576;2022-10-26T00:05:16;101117.44;;;14.10;92.27
18500;BME280;9379;52.134;11.576;2022-10-26T00:07:44;101101.38;;;14.10;93.59
18500;BME280;9379;52.134;11.576;2022-10-26T00:10:13;101106.16;;;14.16;91.55
18500;BME280;9379;52.134;11.576;2022-10-26T00:12:40;101100.06;;;13.87;93.14
18500;BME280;9379;52.134;11.576;2022-10-26T00:15:09;101106.28;;;13.78;93.45
18500;BME280;9379;52.134;11.576;2022-10-26T00:17:36;101101.38;;;13.54;94.43
18500;BME280;9379;52.134;11.576;2022-10-26T00:20:03;101110.06;;;13.65;94.55
18500;BME280;9379;52.134;11.576;2022-10-26T00:22:29;101100.66;;;13.81;93.64
18500;BME280;9379;52.134;11.576;2022-10-26T00:24:59;101110.84;;;14.05;92.23
18500;BME280;9379;52.134;11.576;2022-10-26T00:27:26;101111.78;;;13.28;93.68
18500;BME280;9379;52.134;11.576;2022-10-26T00:29:52;101116.56;;;13.34;93.41
18500;BME280;9379;52.134;11.576;2022-10-26T00:32:19;101108.13;;;13.29;93.95
18500;BME280;9379;52.134;11.576;2022-10-26T00:34:46;101114.59;;;13.36;94.24
18500;BME280;9379;52.134;11.576;2022-10-26T00:37:13;101119.81;;;13.47;93.39
18500;BME280;9379;52.134;11.576;2022-10-26T00:39:39;101116.00;;;13.50;93.52
18500;BME280;9379;52.134;11.576;2022-10-26T00:42:11;101114.59;;;13.46;93.10
18500;BME280;9379;52.134;11.576;2022-10-26T00:44:59;101106.00;;;13.13;93.75
18500;BME280;9379;52.134;11.576;2022-10-26T00:47:39;101111.75;;;13.08;93.96
18500;BME280;9379;52.134;11.576;2022-10-26T00:50:10;101132.41;;;12.97;94.52
18500;BME280;9379;52.134;11.576;2022-10-26T00:52:38;101116.97;;;12.60;97.29
18500;BME280;9379;52.134;11.576;2022-10-26T00:55:06;101133.56;;;12.64;96.38
18500;BME280;9379;52.134;11.576;2022-10-26T00:57:39;101134.28;;;12.66;96.46
18500;BME280;9379;52.134;11.576;2022-10-26T01:00:07;101127.50;;;12.52;96.97
18500;BME280;9379;52.134;11.576;2022-10-26T01:02:34;101131.97;;;13.01;95.28
18500;BME280;9379;52.134;11.576;2022-10-26T01:05:02;101119.78;;;12.59;95.79
18500;BME280;9379;52.134;11.576;2022-10-26T01:07:30;101132.34;;;12.77;96.27
18500;BME280;9379;52.134;11.576;2022-10-26T01:09:57;101138.03;;;12.53;96.74
18500;BME280;9379;52.134;11.576;2022-10-26T01:12:24;101130.13;;;12.92;95.04
18500;BME280;9379;52.134;11.576;2022-10-26T01:14:52;101133.53;;;13.13;93.53
18500;BME280;9379;52.134;11.576;2022-10-26T01:17:31;101131.38;;;12.88;93.36
18500;BME280;9379;52.134;11.576;2022-10-26T01:23:07;101131.47;;;13.46;91.10
18500;BME280;9379;52.134;11.576;2022-10-26T01:29:11;101108.75;;;12.82;94.88
18500;BME280;9379;52.134;11.576;2022-10-26T01:31:44;101132.75;;;13.32;92.82
18500;BME280;9379;52.134;11.576;2022-10-26T01:34:19;101128.13;;;12.84;94.11
18500;BME280;9379;52.134;11.576;2022-10-26T01:36:51;101130.34;;;12.70;94.93
18500;BME280;9379;52.134;11.576;2022-10-26T01:39:23;101115.13;;;13.10;94.74
18500;BME280;9379;52.134;11.576;2022-10-26T01:41:57;101120.66;;;13.38;92.51
18500;BME280;9379;52.134;11.576;2022-10-26T01:44:28;101115.19;;;13.20;92.80
18500;BME280;9379;52.134;11.576;2022-10-26T01:46:58;101123.06;;;13.31;92.20
18500;BME280;9379;52.134;11.576;2022-10-26T01:49:27;101123.41;;;13.17;92.58
18500;BME280;9379;52.134;11.576;2022-10-26T01:51:54;101122.41;;;12.99;92.75
18500;BME280;9379;52.134;11.576;2022-10-26T01:54:21;101114.06;;;12.73;92.94
18500;BME280;9379;52.134;11.576;2022-10-26T01:56:49;101120.44;;;12.91;93.54
18500;BME280;9379;52.134;11.576;2022-10-26T01:59:21;101110.34;;;13.04;92.31
18500;BME280;9379;52.134;11.576;2022-10-26T02:07:55;101115.31;;;12.69;92.84
18500;BME280;9379;52.134;11.576;2022-10-26T02:10:36;101110.50;;;12.53;94.42
18500;BME280;9379;52.134;11.576;2022-10-26T02:13:11;101112.88;;;12.46;94.03
18500;BME280;9379;52.134;11.576;2022-10-26T02:15:48;101115.81;;;12.13;95.63
18500;BME280;9379;52.134;11.576;2022-10-26T02:18:24;101113.50;;;11.98;96.23
18500;BME280;9379;52.134;11.576;2022-10-26T02:20:57;101126.31;;;12.05;96.24
18500;BME280;9379;52.134;11.576;2022-10-26T02:23:28;101117.03;;;11.67;97.30
18500;BME280;9379;52.134;11.576;2022-10-26T02:25:58;101122.97;;;12.43;94.98
18500;BME280;9379;52.134;11.576;2022-10-26T02:28:29;101102.56;;;12.63;94.04
18500;BME280;9379;52.134;11.576;2022-10-26T02:30:58;101102.56;;;12.82;92.58
18500;BME280;9379;52.134;11.576;2022-10-26T02:33:30;101114.50;;;12.78;92.45
18500;BME280;9379;52.134;11.576;2022-10-26T02:36:04;101100.78;;;12.92;92.59
18500;BME280;9379;52.134;11.576;2022-10-26T02:38:33;101103.13;;;12.76;93.48
18500;BME280;9379;52.134;11.576;2022-10-26T02:41:03;101101.03;;;12.30;95.37
18500;BME280;9379;52.134;11.576;2022-10-26T02:43:32;101095.38;;;12.23;95.42
18500;BME280;9379;52.134;11.576;2022-10-26T02:46:06;101112.31;;;12.43;97.32
18500;BME280;9379;52.134;11.576;2022-10-26T02:48:35;101108.09;;;12.10;97.00
18500;BME280;9379;52.134;11.576;2022-10-26T02:51:07;101110.53;;;12.22;95.83
18500;BME280;9379;52.134;11.576;2022-10-26T02:53:40;101106.50;;;12.38;95.62
18500;BME280;9379;52.134;11.576;2022-10-26T02:56:12;101081.03;;;12.54;94.35
18500;BME280;9379;52.134;11.576;2022-10-26T02:58:45;101075.50;;;12.87;92.65
18500;BME280;9379;52.134;11.576;2022-10-26T03:01:13;101074.56;;;12.47;93.64
18500;BME280;9379;52.134;11.576;2022-10-26T03:03:42;101081.34;;;12.71;93.75
18500;BME280;9379;52.134;11.576;2022-10-26T03:06:08;101090.88;;;13.33;92.21
18500;BME280;9379;52.134;11.576;2022-10-26T03:08:35;101062.31;;;12.85;91.65
18500;BME280;9379;52.134;11.576;2022-10-26T03:11:02;101078.66;;;12.51;94.10
18500;BME280;9379;52.134;11.576;2022-10-26T03:13:30;101088.00;;;12.86;93.76
18500;BME280;9379;52.134;11.576;2022-10-26T03:15:57;101085.81;;;12.61;92.62
18500;BME280;9379;52.134;11.576;2022-10-26T03:18:25;101082.84;;;12.04;95.58
18500;BME280;9379;52.134;11.576;2022-10-26T03:20:53;101089.38;;;12.31;95.90
18500;BME280;9379;52.134;11.576;2022-10-26T03:23:20;101084.91;;;12.31;94.80
18500;BME280;9379;52.134;11.576;2022-10-26T03:25:49;101077.13;;;12.59;92.18
18500;BME280;9379;52.134;11.576;2022-10-26T03:28:16;101083.16;;;12.61;91.42
18500;BME280;9379;52.134;11.576;2022-10-26T03:30:42;101085.78;;;12.41;94.02
18500;BME280;9379;52.134;11.576;2022-10-26T03:33:09;101064.50;;;11.69;95.29
18500;BME280;9379;52.134;11.576;2022-10-26T03:35:35;101059.81;;;12.03;94.59
18500;BME280;9379;52.134;11.576;2022-10-26T03:38:03;101076.28;;;12.18;92.68
18500;BME280;9379;52.134;11.576;2022-10-26T03:40:30;101082.56;;;12.07;93.51
18500;BME280;9379;52.134;11.576;2022-10-26T03:42:57;101077.09;;;12.09;92.72
18500;BME280;9379;52.134;11.576;2022-10-26T03:45:23;101085.16;;;11.97;93.23
18500;BME280;9379;52.134;11.576;2022-10-26T03:47:50;101073.56;;;12.48;92.56
18500;BME280;9379;52.134;11.576;2022-10-26T03:50:19;101062.31;;;12.35;90.74
18500;BME280;9379;52.134;11.576;2022-10-26T03:52:49;101079.84;;;12.28;90.98
18500;BME280;9379;52.134;11.576;2022-10-26T03:55:19;101080.47;;;12.51;91.07
18500;BME280;9379;52.134;11.576;2022-10-26T03:57:49;101073.28;;;12.42;91.38
18500;BME280;9379;52.134;11.576;2022-10-26T04:00:16;101073.88;;;12.55;91.52
18500;BME280;9379;52.134;11.576;2022-10-26T04:02:45;101079.00;;;12.37;91.27
18500;BME280;9379;52.134;11.576;2022-10-26T04:05:18;101068.97;;;12.10;92.61
18500;BME280;9379;52.134;11.576;2022-10-26T04:07:51;101083.91;;;12.32;92.48
18500;BME280;9379;52.134;11.576;2022-10-26T04:10:19;101077.78;;;12.11;92.29
18500;BME280;9379;52.134;11.576;2022-10-26T04:12:45;101083.34;;;11.98;92.65
18500;BME280;9379;52.134;11.576;2022-10-26T04:15:13;101081.00;;;12.05;91.52
18500;BME280;9379;52.134;11.576;2022-10-26T04:17:40;101070.22;;;12.06;92.42
18500;BME280;9379;52.134;11.576;2022-10-26T04:20:08;101069.44;;;12.25;90.49
18500;BME280;9379;52.134;11.576;2022-10-26T04:22:35;101083.06;;;12.01;91.26
18500;BME280;9379;52.134;11.576;2022-10-26T04:25:01;101061.53;;;12.04;91.42
18500;BME280;9379;52.134;11.576;2022-10-26T04:27:29;101069.97;;;11.88;92.13
18500;BME280;9379;52.134;11.576;2022-10-26T04:29:56;101066.84;;;12.04;91.72
18500;BME280;9379;52.134;11.576;2022-10-26T04:32:23;101078.97;;;12.18;91.38
18500;BME280;9379;52.134;11.576;2022-10-26T04:34:50;101073.63;;;12.18;92.01
18500;BME280;9379;52.134;11.576;2022-10-26T04:37:18;101072.81;;;12.27;91.36
18500;BME280;9379;52.134;11.576;2022-10-26T04:39:45;101047.22;;;12.05;91.71
18500;BME280;9379;52.134;11.576;2022-10-26T04:42:11;101052.56;;;12.15;91.42
18500;BME280;9379;52.134;11.576;2022-10-26T04:44:39;101061.25;;;12.07;90.79
18500;BME280;9379;52.134;11.576;2022-10-26T04:47:06;101064.84;;;11.55;92.70
18500;BME280;9379;52.134;11.576;2022-10-26T04:49:33;101063.03;;;11.97;92.59
18500;BME280;9379;52.134;11.576;2022-10-26T04:51:59;101058.75;;;11.85;91.79
18500;BME280;9379;52.134;11.576;2022-10-26T04:54:26;101050.88;;;12.04;92.01
18500;BME280;9379;52.134;11.576;2022-10-26T04:56:52;101065.13;;;11.93;92.19
18500;BME280;9379;52.134;11.576;2022-10-26T04:59:19;101048.19;;;12.04;91.35
18500;BME280;9379;52.134;11.576;2022-10-26T05:01:47;101055.38;;;12.13;91.67
18500;BME280;9379;52.134;11.576;2022-10-26T05:04:14;101034.78;;;11.64;92.62
18500;BME280;9379;52.134;11.576;2022-10-26T05:06:40;101061.19;;;11.97;93.54
18500;BME280;9379;52.134;11.576;2022-10-26T05:09:07;101057.78;;;12.16;91.98
18500;BME280;9379;52.134;11.576;2022-10-26T05:11:34;101054.25;;;11.44;93.27
18500;BME280;9379;52.134;11.576;2022-10-26T05:14:00;101058.03;;;11.41;94.17
18500;BME280;9379;52.134;11.576;2022-10-26T05:16:27;101057.16;;;11.20;94.30
18500;BME280;9379;52.134;11.576;2022-10-26T05:18:55;101066.59;;;11.65;92.76
18500;BME280;9379;52.134;11.576;2022-10-26T05:21:21;101064.59;;;11.58;93.01
18500;BME280;9379;52.134;11.576;2022-10-26T05:23:49;101073.88;;;11.63;92.11
18500;BME280;9379;52.134;11.576;2022-10-26T05:26:17;101062.00;;;11.47;92.75
18500;BME280;9379;52.134;11.576;2022-10-26T05:28:43;101059.13;;;11.38;93.36
18500;BME280;9379;52.134;11.576;2022-10-26T05:31:10;101049.66;;;11.25;93.18
18500;BME280;9379;52.134;11.576;2022-10-26T05:33:36;101071.66;;;10.95;94.77
18500;BME280;9379;52.134;11.576;2022-10-26T05:36:05;101074.94;;;11.19;94.40
18500;BME280;9379;52.134;11.576;2022-10-26T05:38:34;101049.53;;;11.47;91.87
18500;BME280;9379;52.134;11.576;2022-10-26T05:41:00;101066.16;;;11.81;90.76
18500;BME280;9379;52.134;11.576;2022-10-26T05:43:27;101059.81;;;12.03;90.01
18500;BME280;9379;52.134;11.576;2022-10-26T05:45:54;101062.88;;;11.78;91.58
18500;BME280;9379;52.134;11.576;2022-10-26T05:48:21;101038.84;;;12.19;89.57
18500;BME280;9379;52.134;11.576;2022-10-26T05:50:48;101073.09;;;12.24;89.38
18500;BME280;9379;52.134;11.576;2022-10-26T05:53:16;101063.03;;;11.97;90.26
18500;BME280;9379;52.134;11.576;2022-10-26T05:55:45;101068.06;;;12.00;90.41
18500;BME280;9379;52.134;11.576;2022-10-26T05:58:13;101077.59;;;12.03;92.12
18500;BME280;9379;52.134;11.576;2022-10-26T06:00:50;101074.13;;;11.39;93.48
18500;BME280;9379;52.134;11.576;2022-10-26T06:03:31;101076.25;;;11.46;93.64
18500;BME280;9379;52.134;11.576;2022-10-26T06:05:59;101078.28;;;11.74;92.96
18500;BME280;9379;52.134;11.576;2022-10-26T06:08:28;101079.44;;;12.02;92.77
18500;BME280;9379;52.134;11.576;2022-10-26T06:10:56;101075.78;;;12.34;90.18
18500;BME280;9379;52.134;11.576;2022-10-26T06:13:24;101069.50;;;11.42;93.90
18500;BME280;9379;52.134;11.576;2022-10-26T06:16:02;101054.25;;;11.64;93.55
18500;BME280;9379;52.134;11.576;2022-10-26T06:18:41;101069.00;;;11.89;93.46
18500;BME280;9379;52.134;11.576;2022-10-26T06:21:32;101048.81;;;12.17;91.62
18500;BME280;9379;52.134;11.576;2022-10-26T06:24:08;101065.97;;;12.34;89.72
18500;BME280;9379;52.134;11.576;2022-10-26T06:26:44;101066.66;;;12.36;89.84
18500;BME280;9379;52.134;11.576;2022-10-26T06:29:20;101057.53;;;12.29;89.72
18500;BME280;9379;52.134;11.576;2022-10-26T06:31:48;101081.03;;;12.14;91.17
18500;BME280;9379;52.134;11.576;2022-10-26T06:34:21;101089.88;;;12.55;90.92
18500;BME280;9379;52.134;11.576;2022-10-26T06:36:51;101085.28;;;12.67;88.60
18500;BME280;9379;52.134;11.576;2022-10-26T06:39:30;101060.16;;;12.19;90.74
18500;BME280;9379;52.134;11.576;2022-10-26T06:42:01;101093.50;;;12.04;92.41
18500;BME280;9379;52.134;11.576;2022-10-26T06:44:31;101081.06;;;12.24;91.95
18500;BME280;9379;52.134;11.576;2022-10-26T06:47:11;101087.22;;;12.55;90.21
18500;BME280;9379;52.134;11.576;2022-10-26T06:49:51;101069.72;;;12.62;88.53
18500;BME280;9379;52.134;11.576;2022-10-26T06:52:30;101072.56;;;12.90;88.71
18500;BME280;9379;52.134;11.576;2022-10-26T06:55:11;101085.63;;;13.02;88.16
18500;BME280;9379;52.134;11.576;2022-10-26T06:57:41;101056.00;;;12.86;88.65
18500;BME280;9379;52.134;11.576;2022-10-26T07:00:18;101068.34;;;12.37;91.05
18500;BME280;9379;52.134;11.576;2022-10-26T07:02:45;101083.38;;;12.38;92.32
18500;BME280;9379;52.134;11.576;2022-10-26T07:05:13;101098.66;;;12.36;93.67
18500;BME280;9379;52.134;11.576;2022-10-26T07:07:43;101095.19;;;12.45;93.93
18500;BME280;9379;52.134;11.576;2022-10-26T07:10:14;101074.47;;;12.18;95.53
18500;BME280;9379;52.134;11.576;2022-10-26T07:12:45;101098.56;;;12.47;96.02
18500;BME280;9379;52.134;11.576;2022-10-26T07:15:17;101061.56;;;12.23;96.00
18500;BME280;9379;52.134;11.576;2022-10-26T07:17:44;101076.41;;;12.56;96.31
18500;BME280;9379;52.134;11.576;2022-10-26T07:20:17;101107.22;;;12.80;95.93
18500;BME280;9379;52.134;11.576;2022-10-26T07:22:48;101081.22;;;12.82;96.02
18500;BME280;9379;52.134;11.576;2022-10-26T07:25:17;101088.84;;;13.15;94.91
18500;BME280;9379;52.134;11.576;2022-10-26T07:27:44;101088.41;;;12.81;96.34
18500;BME280;9379;52.134;11.576;2022-10-26T07:30:15;101072.09;;;12.84;96.92
18500;BME280;9379;52.134;11.576;2022-10-26T07:32:42;101076.19;;;13.08;95.56
18500;BME280;9379;52.134;11.576;2022-10-26T07:35:10;101087.75;;;13.08;96.21
18500;BME280;9379;52.134;11.576;2022-10-26T07:37:37;101099.97;;;13.69;94.36
18500;BME280;9379;52.134;11.576;2022-10-26T07:40:05;101093.78;;;13.59;94.84
18500;BME280;9379;52.134;11.576;2022-10-26T07:42:38;101072.97;;;13.53;94.69
18500;BME280;9379;52.134;11.576;2022-10-26T07:45:06;101088.44;;;13.68;95.17
18500;BME280;9379;52.134;11.576;2022-10-26T07:47:33;101096.06;;;13.44;96.59
18500;BME280;9379;52.134;11.576;2022-10-26T07:50:00;101099.19;;;12.70;100.00
18500;BME280;9379;52.134;11.576;2022-10-26T07:52:30;101112.63;;;13.28;98.95
18500;BME280;9379;52.134;11.576;2022-10-26T07:54:59;101102.63;;;13.11;99.69
18500;BME280;9379;52.134;11.576;2022-10-26T07:57:31;101100.97;;;13.20;98.86
18500;BME280;9379;52.134;11.576;2022-10-26T08:00:07;101104.03;;;13.63;98.30
18500;BME280;9379;52.134;11.576;2022-10-26T08:02:35;101114.25;;;13.87;96.48
18500;BME280;9379;52.134;11.576;2022-10-26T08:05:02;101071.97;;;13.63;97.12
18500;BME280;9379;52.134;11.576;2022-10-26T08:07:34;101099.13;;;14.15;95.51
18500;BME280;9379;52.134;11.576;2022-10-26T08:10:06;101099.63;;;13.91;95.97
18500;BME280;9379;52.134;11.576;2022-10-26T08:12:35;101095.53;;;13.97;95.74
18500;BME280;9379;52.134;11.576;2022-10-26T08:15:15;101108.66;;;14.27;94.29
18500;BME280;9379;52.134;11.576;2022-10-26T08:17:44;101101.44;;;14.38;94.33
18500;BME280;9379;52.134;11.576;2022-10-26T08:20:13;101083.59;;;14.28;93.86
18500;BME280;9379;52.134;11.576;2022-10-26T08:22:49;101116.03;;;14.53;93.45
18500;BME280;9379;52.134;11.576;2022-10-26T08:25:17;101098.19;;;14.07;95.45
18500;BME280;9379;52.134;11.576;2022-10-26T08:27:44;101087.16;;;14.19;95.35
18500;BME280;9379;52.134;11.576;2022-10-26T08:30:15;101079.53;;;13.87;96.17
18500;BME280;9379;52.134;11.576;2022-10-26T08:32:56;101081.56;;;14.40;94.42
18500;BME280;9379;52.134;11.576;2022-10-26T08:35:24;101097.16;;;14.54;93.96
18500;BME280;9379;52.134;11.576;2022-10-26T08:37:51;101104.50;;;14.52;94.08
18500;BME280;9379;52.134;11.576;2022-10-26T08:40:22;101103.38;;;14.45;95.77
18500;BME280;9379;52.134;11.576;2022-10-26T08:42:59;101091.22;;;14.23;96.33
18500;BME280;9379;52.134;11.576;2022-10-26T08:45:35;101100.81;;;14.53;96.48
18500;BME280;9379;52.134;11.576;2022-10-26T08:48:09;101078.22;;;14.66;95.65
18500;BME280;9379;52.134;11.576;2022-10-26T08:50:44;101087.28;;;14.82;94.81
18500;BME280;9379;52.134;11.576;2022-10-26T08:53:19;101083.47;;;14.57;95.45
18500;BME280;9379;52.134;11.576;2022-10-26T08:55:50;101086.09;;;14.95;94.29
18500;BME280;9379;52.134;11.576;2022-10-26T08:58:22;101073.00;;;15.09;93.50
18500;BME280;9379;52.134;11.576;2022-10-26T09:00:56;101070.03;;;14.95;95.10
18500;BME280;9379;52.134;11.576;2022-10-26T09:03:24;101071.13;;;14.74;95.76
18500;BME280;9379;52.134;11.576;2022-10-26T09:06:06;101079.19;;;15.10;95.91
18500;BME280;9379;52.134;11.576;2022-10-26T09:08:46;101095.00;;;15.57;93.26
18500;BME280;9379;52.134;11.576;2022-10-26T09:11:28;101090.56;;;15.47;93.46
18500;BME280;9379;52.134;11.576;2022-10-26T09:14:09;101074.41;;;15.57;93.02
18500;BME280;9379;52.134;11.576;2022-10-26T09:16:45;101072.22;;;15.53;92.67
18500;BME280;9379;52.134;11.576;2022-10-26T09:19:34;101106.25;;;15.78;92.94
18500;BME280;9379;52.134;11.576;2022-10-26T09:22:11;101094.44;;;15.63;94.68
18500;BME280;9379;52.134;11.576;2022-10-26T09:24:49;101093.00;;;15.59;94.46
18500;BME280;9379;52.134;11.576;2022-10-26T09:27:21;101080.66;;;15.40;95.39
18500;BME280;9379;52.134;11.576;2022-10-26T09:29:54;101085.38;;;15.46;95.59
18500;BME280;9379;52.134;11.576;2022-10-26T09:32:28;101084.28;;;15.57;95.56
18500;BME280;9379;52.134;11.576;2022-10-26T09:34:58;101077.34;;;15.46;95.25
18500;BME280;9379;52.134;11.576;2022-10-26T09:37:30;101082.59;;;15.73;93.81
18500;BME280;9379;52.134;11.576;2022-10-26T09:40:06;101086.25;;;16.24;92.19
18500;BME280;9379;52.134;11.576;2022-10-26T09:42:42;101082.47;;;16.09;92.05
18500;BME280;9379;52.134;11.576;2022-10-26T09:45:15;101075.19;;;15.93;92.11
18500;BME280;9379;52.134;11.576;2022-10-26T09:47:48;101097.47;;;15.94;93.78
18500;BME280;9379;52.134;11.576;2022-10-26T09:50:21;101084.53;;;16.15;91.76
18500;BME280;9379;52.134;11.576;2022-10-26T09:52:51;101095.25;;;16.15;93.30
18500;BME280;9379;52.134;11.576;2022-10-26T09:55:17;101082.28;;;16.02;93.01
18500;BME280;9379;52.134;11.576;2022-10-26T09:57:49;101099.25;;;16.45;92.10
18500;BME280;9379;52.134;11.576;2022-10-26T10:00:21;101096.28;;;16.56;92.45
18500;BME280;9379;52.134;11.576;2022-10-26T10:02:52;101087.66;;;16.37;91.50
18500;BME280;9379;52.134;11.576;2022-10-26T10:05:25;101114.53;;;16.79;91.04
18500;BME280;9379;52.134;11.576;2022-10-26T10:08:09;101078.81;;;16.52;90.21
18500;BME280;9379;52.134;11.576;2022-10-26T10:10:38;101089.00;;;16.83;90.27
18500;BME280;9379;52.134;11.576;2022-10-26T10:13:29;101086.06;;;16.60;91.23
18500;BME280;9379;52.134;11.576;2022-10-26T10:16:02;101077.63;;;16.47;91.98
18500;BME280;9379;52.134;11.576;2022-10-26T10:18:34;101111.34;;;16.83;91.46
18500;BME280;9379;52.134;11.576;2022-10-26T10:21:01;101100.09;;;16.80;92.32
18500;BME280;9379;52.134;11.576;2022-10-26T10:23:33;101099.25;;;16.87;91.20
18500;BME280;9379;52.134;11.576;2022-10-26T10:26:04;101107.38;;;16.61;92.46
18500;BME280;9379;52.134;11.576;2022-10-26T10:28:36;101092.59;;;16.57;92.03
18500;BME280;9379;52.134;11.576;2022-10-26T10:31:05;101094.63;;;16.63;92.14
18500;BME280;9379;52.134;11.576;2022-10-26T10:33:37;101098.88;;;16.74;92.10
18500;BME280;9379;52.134;11.576;2022-10-26T10:36:14;101107.81;;;16.83;91.48
18500;BME280;9379;52.134;11.576;2022-10-26T10:38:51;101097.25;;;16.89;91.26
18500;BME280;9379;52.134;11.576;2022-10-26T10:41:23;101103.00;;;17.35;89.92
18500;BME280;9379;52.134;11.576;2022-10-26T10:44:04;101092.13;;;17.37;89.13
18500;BME280;9379;52.134;11.576;2022-10-26T10:46:35;101065.56;;;17.58;89.53
18500;BME280;9379;52.134;11.576;2022-10-26T10:49:24;101063.22;;;17.06;90.84
18500;BME280;9379;52.134;11.576;2022-10-26T10:51:56;101082.97;;;16.81;91.73
18500;BME280;9379;52.134;11.576;2022-10-26T10:54:28;101090.72;;;16.92;91.83
18500;BME280;9379;52.134;11.576;2022-10-26T10:57:08;101087.56;;;17.05;91.71
18500;BME280;9379;52.134;11.576;2022-10-26T11:00:02;101107.16;;;16.97;92.27
18500;BME280;9379;52.134;11.576;2022-10-26T11:02:47;101113.19;;;16.83;92.50
18500;BME280;9379;52.134;11.576;2022-10-26T11:05:39;101084.28;;;16.77;92.85
18500;BME280;9379;52.134;11.576;2022-10-26T11:08:19;101092.53;;;16.83;92.69
18500;BME280;9379;52.134;11.576;2022-10-26T11:10:52;101087.69;;;16.95;92.04
18500;BME280;9379;52.134;11.576;2022-10-26T11:13:33;101084.41;;;17.50;89.05
18500;BME280;9379;52.134;11.576;2022-10-26T11:16:04;101118.59;;;17.07;91.34
18500;BME280;9379;52.134;11.576;2022-10-26T11:18:35;101093.13;;;17.28;89.92
18500;BME280;9379;52.134;11.576;2022-10-26T11:21:19;101108.91;;;17.39;90.29
18500;BME280;9379;52.134;11.576;2022-10-26T11:23:51;101092.97;;;17.78;90.20
18500;BME280;9379;52.134;11.576;2022-10-26T11:26:40;101078.81;;;17.68;89.06
18500;BME280;9379;52.134;11.576;2022-10-26T11:29:18;101077.81;;;17.36;90.73
18500;BME280;9379;52.134;11.576;2022-10-26T11:31:52;101089.44;;;17.77;90.30
18500;BME280;9379;52.134;11.576;2022-10-26T11:34:30;101080.34;;;17.87;90.51
18500;BME280;9379;52.134;11.576;2022-10-26T11:37:07;101080.19;;;17.31;91.39
18500;BME280;9379;52.134;11.576;2022-10-26T11:39:44;101082.88;;;17.56;91.25
18500;BME280;9379;52.134;11.576;2022-10-26T11:42:23;101093.78;;;17.70;90.58
18500;BME280;9379;52.134;11.576;2022-10-26T11:44:58;101089.03;;;18.05;90.62
18500;BME280;9379;52.134;11.576;2022-10-26T11:47:31;101096.00;;;17.75;91.73
18500;BME280;9379;52.134;11.576;2022-10-26T11:50:05;101096.13;;;17.98;90.80
18500;BME280;9379;52.134;11.576;2022-10-26T11:52:44;101074.44;;;18.47;89.47
18500;BME280;9379;52.134;11.576;2022-10-26T11:55:15;101088.50;;;18.96;87.35
18500;BME280;9379;52.134;11.576;2022-10-26T11:57:43;101094.81;;;19.11;88.35
18500;BME280;9379;52.134;11.576;2022-10-26T12:00:15;101081.75;;;18.61;88.83
18500;BME280;9379;52.134;11.576;2022-10-26T12:02:47;101079.16;;;18.84;88.87
18500;BME280;9379;52.134;11.576;2022-10-26T12:05:24;101065.59;;;18.61;89.43
18500;BME280;9379;52.134;11.576;2022-10-26T12:07:57;101076.44;;;18.53;89.84
18500;BME280;9379;52.134;11.576;2022-10-26T12:10:28;101083.66;;;19.14;88.06
18500;BME280;9379;52.134;11.576;2022-10-26T12:13:06;101079.59;;;19.18;85.80
18500;BME280;9379;52.134;11.576;2022-10-26T12:15:43;101078.91;;;18.93;87.40
18500;BME280;9379;52.134;11.576;2022-10-26T12:18:16;101086.19;;;18.54;88.89
18500;BME280;9379;52.134;11.576;2022-10-26T12:20:54;101081.94;;;18.68;89.57
18500;BME280;9379;52.134;11.576;2022-10-26T12:23:29;101086.13;;;18.62;89.43
18500;BME280;9379;52.134;11.576;2022-10-26T12:29:27;101101.88;;;18.81;89.69
18500;BME280;9379;52.134;11.576;2022-10-26T12:31:57;101111.91;;;18.64;90.16
18500;BME280;9379;52.134;11.576;2022-10-26T12:35:00;101097.75;;;18.15;91.82
18500;BME280;9379;52.134;11.576;2022-10-26T12:37:36;101078.97;;;17.99;92.99
18500;BME280;9379;52.134;11.576;2022-10-26T12:40:40;101110.38;;;18.70;91.56
18500;BME280;9379;52.134;11.576;2022-10-26T12:43:35;101077.94;;;18.55;90.86
18500;BME280;9379;52.134;11.576;2022-10-26T12:52:39;101091.88;;;18.20;93.45
18500;BME280;9379;52.134;11.576;2022-10-26T12:55:40;101096.81;;;18.47;91.85
18500;BME280;9379;52.134;11.576;2022-10-26T12:58:24;101094.59;;;18.51;91.18
18500;BME280;9379;52.134;11.576;2022-10-26T13:01:15;101087.63;;;18.33;92.16
18500;BME280;9379;52.134;11.576;2022-10-26T13:03:53;101089.06;;;18.52;90.98
18500;BME280;9379;52.134;11.576;2022-10-26T13:06:38;101124.38;;;18.49;92.35
18500;BME280;9379;52.134;11.576;2022-10-26T13:09:14;101116.09;;;18.59;91.99
18500;BME280;9379;52.134;11.576;2022-10-26T13:11:46;101108.13;;;18.82;91.92
18500;BME280;9379;52.134;11.576;2022-10-26T13:14:18;101094.81;;;18.80;91.75
18500;BME280;9379;52.134;11.576;2022-10-26T13:16:50;101092.31;;;18.79;91.97
18500;BME280;9379;52.134;11.576;2022-10-26T13:19:23;101090.59;;;18.47;92.52
18500;BME280;9379;52.134;11.576;2022-10-26T13:21:51;101096.34;;;18.75;91.73
18500;BME280;9379;52.134;11.576;2022-10-26T13:24:22;101093.94;;;18.49;92.96
18500;BME280;9379;52.134;11.576;2022-10-26T13:27:40;101117.31;;;18.64;93.77
18500;BME280;9379;52.134;11.576;2022-10-26T13:30:35;101090.31;;;18.73;92.15
18500;BME280;9379;52.134;11.576;2022-10-26T13:33:14;101116.41;;;19.03;91.41
18500;BME280;9379;52.134;11.576;2022-10-26T13:35:49;101101.81;;;18.67;92.45
18500;BME280;9379;52.134;11.576;2022-10-26T13:38:20;101092.22;;;18.64;93.13